Volcan De Tauce — EAGW — position and weather

sailwx.info

Track history (hours):
 
Tides and Currents Weather Stations Pressure Air Temp Water Temp Dewpoint Dewpoint Depression Visibility Wind Speed Wind Dir Waves Ship Positions

Volcan De Tauce

Last reported at 2017-Aug-23 19:30 UTC. Time now 2017-Aug-23 19:28 UTC.
Position N 28°08' W 015°25'.

Length 120 m; draft 4.4 m.

Type: Passenger vessel. MMSI: 224761000.

Date/timePositionNaut miles runAvg speedWind from/ knotsBaromVisibWave heightAir tempDewpointWater temp
2017-Aug-23 19:30N 28°08' W 015°25'0 0.0
2017-Aug-23 19:00N 28°08' W 015°25'0 0.0
2017-Aug-23 18:30N 28°08' W 015°25'0 0.0
2017-Aug-23 18:00N 28°08' W 015°25'0 0.0
2017-Aug-23 17:30N 28°08' W 015°25'0 0.0
2017-Aug-23 17:00N 28°08' W 015°25'1 2.4
2017-Aug-23 16:30N 28°07' W 015°24'815.1
2017-Aug-23 16:00N 28°06' W 015°16'815.4
2017-Aug-23 15:30N 28°06' W 015°07'815.7
2017-Aug-23 15:00N 28°05' W 014°58'815.7
2017-Aug-23 14:30N 28°04' W 014°49'1615.7
2017-Aug-23 13:30N 28°02' W 014°32'816.2
2017-Aug-23 13:00N 28°01' W 014°23'915.4
2017-Aug-23 12:26N 28°04' W 014°13'816.5
2017-Aug-23 11:59N 28°08' W 014°06'816.4
2017-Aug-23 11:30N 28°11' W 013°58'1015.8
2017-Aug-23 10:52N 28°20' W 013°51'616.9
2017-Aug-23 10:30N 28°25' W 013°49'5 8.5
2017-Aug-23 09:57N 28°30' W 013°51'0 0.0
2017-Aug-23 09:29N 28°30' W 013°51'0 0.0
2017-Aug-23 09:00N 28°30' W 013°51'0 0.0
2017-Aug-23 08:30N 28°30' W 013°51'0 0.0
2017-Aug-23 07:59N 28°30' W 013°51'0 0.0
2017-Aug-23 07:30N 28°30' W 013°51'0 0.0
2017-Aug-23 06:50N 28°30' W 013°51'0 0.0
2017-Aug-23 06:30N 28°30' W 013°51'1 1.5
2017-Aug-23 06:00N 28°29' W 013°51'713.1
2017-Aug-23 05:30N 28°23' W 013°49'814.9
2017-Aug-23 04:58N 28°16' W 013°52'714.2
2017-Aug-23 04:30N 28°11' W 013°57'916.0
2017-Aug-23 03:57N 28°07' W 014°06'816.3
2017-Aug-23 03:29N 28°03' W 014°14'1015.3
2017-Aug-23 02:48N 28°01' W 014°26'515.5
2017-Aug-23 02:29N 28°01' W 014°31'715.3
2017-Aug-23 02:00N 28°02' W 014°39'815.3
2017-Aug-23 01:30N 28°03' W 014°48'815.2
2017-Aug-23 00:58N 28°04' W 014°57'715.0
2017-Aug-23 00:30N 28°05' W 015°05'815.3
2017-Aug-23 00:00N 28°06' W 015°14'815.8
2017-Aug-22 23:30N 28°07' W 015°22'2 4.9
2017-Aug-22 23:00N 28°08' W 015°25'0 0.0
2017-Aug-22 22:30N 28°08' W 015°25'0 0.0
2017-Aug-22 22:00N 28°08' W 015°25'0 0.0
2017-Aug-22 21:30N 28°08' W 015°25'0 0.0
2017-Aug-22 21:00N 28°08' W 015°25'0 0.0
2017-Aug-22 20:30N 28°08' W 015°25'0 0.0
2017-Aug-22 20:00N 28°08' W 015°25'0 0.0
2017-Aug-22 19:30N 28°08' W 015°25'0 0.0
2017-Aug-22 19:00N 28°08' W 015°25'0 0.0
2017-Aug-22 18:30N 28°08' W 015°25'0 0.0
2017-Aug-22 18:00N 28°08' W 015°25'0 0.0
2017-Aug-22 17:30N 28°08' W 015°25'0 0.0
2017-Aug-22 17:00N 28°08' W 015°25'2 4.6
2017-Aug-22 16:30N 28°07' W 015°23'815.7
2017-Aug-22 16:00N 28°06' W 015°14'815.9
2017-Aug-22 15:30N 28°06' W 015°05'816.0
2017-Aug-22 15:00N 28°05' W 014°56'816.0
2017-Aug-22 14:30N 28°04' W 014°47'816.1
2017-Aug-22 14:00N 28°03' W 014°38'816.2
2017-Aug-22 13:30N 28°02' W 014°29'816.3
2017-Aug-22 13:00N 28°01' W 014°20'1416.1
2017-Aug-22 12:09N 28°08' W 014°06'216.3
2017-Aug-22 12:00N 28°09' W 014°03'916.4
2017-Aug-22 11:26N 28°14' W 013°54'716.6
2017-Aug-22 11:00N 28°20' W 013°51'815.9
2017-Aug-22 10:29N 28°28' W 013°51'1 3.0
2017-Aug-22 10:00N 28°30' W 013°51'0 0.0
2017-Aug-22 09:30N 28°30' W 013°51'0 0.0
2017-Aug-22 09:00N 28°30' W 013°51'0 0.0
2017-Aug-22 08:30N 28°30' W 013°51'0 0.0
2017-Aug-22 08:00N 28°30' W 013°51'0 0.0
2017-Aug-22 07:30N 28°30' W 013°51'0 0.0
2017-Aug-22 06:55N 28°30' W 013°51'1 2.4
2017-Aug-22 06:28N 28°29' W 013°50'614.1
2017-Aug-22 06:00N 28°23' W 013°49'715.0
2017-Aug-22 05:30N 28°16' W 013°53'714.0
2017-Aug-22 05:00N 28°11' W 013°58'815.6
2017-Aug-22 04:30N 28°07' W 014°06'816.0
2017-Aug-22 04:00N 28°03' W 014°13'815.0
2017-Aug-22 03:30N 28°01' W 014°22'815.7
2017-Aug-22 03:00N 28°02' W 014°31'915.6
2017-Aug-22 02:26N 28°03' W 014°41'715.0
2017-Aug-22 01:59N 28°03' W 014°48'715.1
2017-Aug-22 01:30N 28°04' W 014°56'714.7
2017-Aug-22 01:00N 28°06' W 015°05'815.1
2017-Aug-22 00:30N 28°06' W 015°13'815.3
2017-Aug-22 00:00N 28°07' W 015°22'3 6.4
2017-Aug-21 23:30N 28°08' W 015°25'0 0.0
2017-Aug-21 23:00N 28°08' W 015°25'0 0.0
2017-Aug-21 22:30N 28°08' W 015°25'0 0.0
2017-Aug-21 22:00N 28°08' W 015°25'0 0.0
2017-Aug-21 21:30N 28°08' W 015°25'0 0.0
2017-Aug-21 21:00N 28°08' W 015°25'0 0.0
2017-Aug-21 20:30N 28°08' W 015°25'0 0.0
2017-Aug-21 20:00N 28°08' W 015°25'0 0.0
2017-Aug-21 19:30N 28°08' W 015°25'0 0.0
2017-Aug-21 19:00N 28°08' W 015°25'0 0.0
2017-Aug-21 18:30N 28°08' W 015°25'0 0.0
2017-Aug-21 18:00N 28°08' W 015°25'0 0.0
2017-Aug-21 17:30N 28°08' W 015°25'0 0.0
2017-Aug-21 17:00N 28°08' W 015°25'0 0.0
2017-Aug-21 16:30N 28°08' W 015°25'0 0.0
2017-Aug-21 16:00N 28°08' W 015°25'0 0.0
2017-Aug-21 15:30N 28°08' W 015°25'0 0.0
2017-Aug-21 15:00N 28°08' W 015°25'0 0.0
2017-Aug-21 14:30N 28°08' W 015°25'0 0.0
2017-Aug-21 14:00N 28°08' W 015°25'0 0.0
2017-Aug-21 13:30N 28°08' W 015°25'0 0.0
2017-Aug-21 13:00N 28°08' W 015°25'0 0.0
2017-Aug-21 12:30N 28°08' W 015°25'0 0.0
2017-Aug-21 12:00N 28°08' W 015°25'0 0.0
2017-Aug-21 11:30N 28°08' W 015°25'0 0.0
2017-Aug-21 11:00N 28°08' W 015°25'0 0.0
2017-Aug-21 10:30N 28°08' W 015°25'0 0.0
2017-Aug-21 10:00N 28°08' W 015°25'0 0.0
2017-Aug-21 09:30N 28°08' W 015°25'0 0.0
2017-Aug-21 09:00N 28°08' W 015°25'0 0.0
2017-Aug-21 08:30N 28°08' W 015°25'0 0.0
2017-Aug-21 08:00N 28°08' W 015°25'0 0.0
2017-Aug-21 07:30N 28°08' W 015°25'0 0.0
2017-Aug-21 07:00N 28°08' W 015°25'0 0.0
2017-Aug-21 06:30N 28°08' W 015°25'0 0.0
2017-Aug-21 06:00N 28°08' W 015°25'0 0.0
2017-Aug-21 05:30N 28°08' W 015°25'0 0.0
2017-Aug-21 05:00N 28°08' W 015°25'0 0.0
2017-Aug-21 04:30N 28°08' W 015°25'0 0.0
2017-Aug-21 04:00N 28°08' W 015°25'0 0.0
2017-Aug-21 03:30N 28°08' W 015°25'0 0.0
2017-Aug-21 03:00N 28°08' W 015°25'0 0.0
2017-Aug-21 02:30N 28°08' W 015°25'0 0.0
2017-Aug-21 02:00N 28°08' W 015°25'0 0.0
2017-Aug-21 01:30N 28°08' W 015°25'0 0.0
2017-Aug-21 01:00N 28°08' W 015°25'0 0.0
2017-Aug-21 00:30N 28°08' W 015°25'0 0.0
2017-Aug-21 00:00N 28°08' W 015°25'0 0.0
2017-Aug-20 23:30N 28°08' W 015°25'0 0.0
2017-Aug-20 23:00N 28°08' W 015°25'0 0.0
2017-Aug-20 22:30N 28°08' W 015°25'0 0.0
2017-Aug-20 22:00N 28°08' W 015°25'0 0.0
2017-Aug-20 21:30N 28°08' W 015°25'0 0.0
2017-Aug-20 21:00N 28°08' W 015°25'0 0.0
2017-Aug-20 20:30N 28°08' W 015°25'0 0.0
2017-Aug-20 20:00N 28°08' W 015°25'0 0.0
2017-Aug-20 19:30N 28°08' W 015°25'0 0.0
2017-Aug-20 19:00N 28°08' W 015°25'0 0.0
2017-Aug-20 18:30N 28°08' W 015°25'0 0.0
2017-Aug-20 18:00N 28°08' W 015°25'0 0.0
2017-Aug-20 17:30N 28°08' W 015°25'0 0.0
2017-Aug-20 17:00N 28°08' W 015°25'0 0.0
2017-Aug-20 16:30N 28°08' W 015°25'0 0.0
2017-Aug-20 16:00N 28°08' W 015°25'0 0.0
2017-Aug-20 15:30N 28°08' W 015°25'0 0.0
2017-Aug-20 15:00N 28°08' W 015°25'0 0.0
2017-Aug-20 14:30N 28°08' W 015°25'0 0.0
2017-Aug-20 14:00N 28°08' W 015°25'0 0.0
2017-Aug-20 13:30N 28°08' W 015°25'0 0.0
2017-Aug-20 13:00N 28°08' W 015°25'0 0.0
2017-Aug-20 12:30N 28°08' W 015°25'0 0.0
2017-Aug-20 12:00N 28°08' W 015°25'0 0.0
2017-Aug-20 11:30N 28°08' W 015°25'0 0.0
2017-Aug-20 11:00N 28°08' W 015°25'0 0.0
2017-Aug-20 10:30N 28°08' W 015°25'0 0.0
2017-Aug-20 10:00N 28°08' W 015°25'0 0.0
2017-Aug-20 09:30N 28°08' W 015°25'0 0.0
2017-Aug-20 09:00N 28°08' W 015°25'0 0.0
2017-Aug-20 08:30N 28°08' W 015°25'0 0.0
2017-Aug-20 08:00N 28°08' W 015°25'0 0.0
2017-Aug-20 07:30N 28°08' W 015°25'0 0.0
2017-Aug-20 07:00N 28°08' W 015°25'0 0.0
2017-Aug-20 06:30N 28°08' W 015°25'0 0.0
2017-Aug-20 06:00N 28°08' W 015°25'0 0.0
2017-Aug-20 05:30N 28°08' W 015°25'0 0.0
2017-Aug-20 05:00N 28°08' W 015°25'0 0.0
2017-Aug-20 04:30N 28°08' W 015°25'0 0.0
2017-Aug-20 04:00N 28°08' W 015°25'0 0.0
2017-Aug-20 03:30N 28°08' W 015°25'0 0.0
2017-Aug-20 03:00N 28°08' W 015°25'0 0.0
2017-Aug-20 02:30N 28°08' W 015°25'0 0.0
2017-Aug-20 02:00N 28°08' W 015°25'0 0.0
2017-Aug-20 01:30N 28°08' W 015°25'0 0.0
2017-Aug-20 01:00N 28°08' W 015°25'0 0.0
2017-Aug-20 00:30N 28°08' W 015°25'0 0.0
2017-Aug-20 00:00N 28°08' W 015°25'0 0.0
2017-Aug-19 23:30N 28°08' W 015°25'0 0.0
2017-Aug-19 23:00N 28°08' W 015°25'0 0.0
2017-Aug-19 22:30N 28°08' W 015°25'0 0.0
2017-Aug-19 22:00N 28°08' W 015°25'0 0.0
2017-Aug-19 21:30N 28°08' W 015°25'0 0.0
2017-Aug-19 21:00N 28°08' W 015°25'0 0.0
2017-Aug-19 20:30N 28°08' W 015°25'0 0.0
2017-Aug-19 20:00N 28°08' W 015°25'0 0.0
2017-Aug-19 19:30N 28°08' W 015°25'0 0.0
2017-Aug-19 19:00N 28°08' W 015°25'0 0.0
2017-Aug-19 18:30N 28°08' W 015°25'0 0.0
2017-Aug-19 18:00N 28°08' W 015°25'0 0.0
2017-Aug-19 17:30N 28°08' W 015°25'0 0.0
2017-Aug-19 17:00N 28°08' W 015°25'1 2.5
2017-Aug-19 16:31N 28°07' W 015°24'815.5
2017-Aug-19 16:01N 28°06' W 015°16'815.8
2017-Aug-19 15:31N 28°05' W 015°07'815.4
2017-Aug-19 15:01N 28°04' W 014°58'1615.9
2017-Aug-19 14:00N 28°02' W 014°40'1016.4
2017-Aug-19 13:25N 28°01' W 014°30'816.8
2017-Aug-19 12:56N 28°01' W 014°20'816.0
2017-Aug-19 12:26N 28°05' W 014°12'716.1
2017-Aug-19 12:00N 28°08' W 014°05'25 7.8
2017-Aug-19 08:46N 28°30' W 013°51'1 0.5
2017-Aug-19 06:34N 28°29' W 013°50'314.9
2017-Aug-19 06:22N 28°27' W 013°49'513.2
2017-Aug-19 05:59N 28°22' W 013°49'913.6
2017-Aug-19 05:18N 28°13' W 013°54'514.3
2017-Aug-19 04:57N 28°11' W 013°59'715.2
2017-Aug-19 04:30N 28°07' W 014°05'815.5
2017-Aug-19 03:59N 28°03' W 014°13'2914.5
2017-Aug-19 01:59N 28°03' W 014°46'714.8
2017-Aug-19 01:30N 28°04' W 014°54'714.8
2017-Aug-19 01:00N 28°04' W 015°02'714.9
2017-Aug-19 00:30N 28°05' W 015°11'815.1
2017-Aug-19 00:00N 28°07' W 015°19'510.3
2017-Aug-18 23:31N 28°08' W 015°25'0 0.1
2017-Aug-18 23:00N 28°08' W 015°25'0 0.0
2017-Aug-18 22:30N 28°08' W 015°25'0 0.0
2017-Aug-18 22:00N 28°08' W 015°25'0 0.0
2017-Aug-18 21:30N 28°08' W 015°25'0 0.0
2017-Aug-18 21:00N 28°08' W 015°25'0 0.0
2017-Aug-18 20:30N 28°08' W 015°25'0 0.0
2017-Aug-18 20:00N 28°08' W 015°25'0 0.0
2017-Aug-18 19:30N 28°08' W 015°25'0 0.0
2017-Aug-18 19:00N 28°08' W 015°25'0 0.0
2017-Aug-18 18:30N 28°08' W 015°25'0 0.0
2017-Aug-18 18:00N 28°08' W 015°25'0 0.0
2017-Aug-18 17:30N 28°08' W 015°25'0 0.0
2017-Aug-18 17:00N 28°08' W 015°25'2 3.6
2017-Aug-18 16:30N 28°07' W 015°23'816.1
2017-Aug-18 16:01N 28°06' W 015°14'815.9
2017-Aug-18 15:31N 28°05' W 015°05'815.1
2017-Aug-18 15:01N 28°04' W 014°57'815.4
2017-Aug-18 14:31N 28°03' W 014°48'1615.9
2017-Aug-18 13:30N 28°01' W 014°30'816.3
2017-Aug-18 13:00N 28°01' W 014°21'815.9
2017-Aug-18 12:29N 28°05' W 014°13'815.9
2017-Aug-18 12:01N 28°08' W 014°05'816.3
2017-Aug-18 11:30N 28°12' W 013°57'1516.1
2017-Aug-18 10:34N 28°25' W 013°49'116.5
2017-Aug-18 10:30N 28°27' W 013°49'3 0.6
2017-Aug-18 05:57N 28°29' W 013°50'914.2
2017-Aug-18 05:19N 28°20' W 013°50'614.9
2017-Aug-18 04:54N 28°15' W 013°53'614.4
2017-Aug-18 04:30N 28°11' W 013°58'815.6
2017-Aug-18 03:58N 28°07' W 014°06'815.7
2017-Aug-18 03:26N 28°03' W 014°14'2214.7
2017-Aug-18 01:56N 28°03' W 014°39'614.7
2017-Aug-18 01:30N 28°03' W 014°46'714.7
2017-Aug-18 01:00N 28°04' W 014°55'714.8
2017-Aug-18 00:30N 28°04' W 015°03'715.0
2017-Aug-18 00:00N 28°06' W 015°12'815.2
2017-Aug-17 23:30N 28°07' W 015°20'4 8.9
2017-Aug-17 23:00N 28°08' W 015°25'0 0.0
2017-Aug-17 22:30N 28°08' W 015°25'0 0.0
2017-Aug-17 22:00N 28°08' W 015°25'0 0.0
2017-Aug-17 21:30N 28°08' W 015°25'0 0.0
2017-Aug-17 21:00N 28°08' W 015°25'0 0.0
2017-Aug-17 20:30N 28°08' W 015°25'0 0.0
2017-Aug-17 20:00N 28°08' W 015°25'0 0.0
2017-Aug-17 19:30N 28°08' W 015°25'0 0.0
2017-Aug-17 19:00N 28°08' W 015°25'0 0.0
2017-Aug-17 18:30N 28°08' W 015°25'0 0.0
2017-Aug-17 18:00N 28°08' W 015°25'0 0.0
2017-Aug-17 17:30N 28°08' W 015°25'0 0.0
2017-Aug-17 17:00N 28°08' W 015°25'1 2.1
2017-Aug-17 16:30N 28°07' W 015°24'714.9
2017-Aug-17 16:00N 28°05' W 015°16'816.7
2017-Aug-17 15:30N 28°04' W 015°07'816.3
2017-Aug-17 15:00N 28°04' W 014°58'816.3
2017-Aug-17 14:30N 28°03' W 014°48'816.4
2017-Aug-17 14:00N 28°02' W 014°39'816.3
2017-Aug-17 13:30N 28°02' W 014°30'916.9
2017-Aug-17 13:00N 28°01' W 014°20'1516.8
2017-Aug-17 12:08N 28°08' W 014°06'217.2
2017-Aug-17 12:00N 28°09' W 014°03'917.4
2017-Aug-17 11:30N 28°13' W 013°55'1417.1
2017-Aug-17 10:40N 28°27' W 013°49'316.8
2017-Aug-17 10:30N 28°29' W 013°51'1 1.9
2017-Aug-17 10:00N 28°30' W 013°51'0 0.0
2017-Aug-17 09:30N 28°30' W 013°51'0 0.0
2017-Aug-17 08:59N 28°30' W 013°51'0 0.0
2017-Aug-17 08:05N 28°30' W 013°51'0 0.0
2017-Aug-17 07:55N 28°30' W 013°51'16 7.3
2017-Aug-17 05:41N 28°14' W 013°53'314.6
2017-Aug-17 05:30N 28°12' W 013°55'815.8
2017-Aug-17 05:00N 28°08' W 014°03'1016.0
2017-Aug-17 04:22N 28°04' W 014°13'615.6
2017-Aug-17 04:01N 28°01' W 014°19'2015.1
2017-Aug-17 02:41N 28°03' W 014°42'814.7
2017-Aug-17 02:08N 28°03' W 014°51'614.8
2017-Aug-17 01:44N 28°04' W 014°58'314.8
2017-Aug-17 01:30N 28°04' W 015°01'714.7
2017-Aug-17 01:00N 28°06' W 015°10'714.9
2017-Aug-17 00:30N 28°07' W 015°18'612.0
2017-Aug-17 00:00N 28°08' W 015°25'0 0.7
2017-Aug-16 23:30N 28°08' W 015°25'0 0.0
2017-Aug-16 23:00N 28°08' W 015°25'0 0.0
2017-Aug-16 22:30N 28°08' W 015°25'0 0.0
2017-Aug-16 22:00N 28°08' W 015°25'0 0.0
2017-Aug-16 21:30N 28°08' W 015°25'0 0.0
2017-Aug-16 21:00N 28°08' W 015°25'0 0.0
2017-Aug-16 20:30N 28°08' W 015°25'0 0.0
2017-Aug-16 20:00N 28°08' W 015°25'0 0.0
2017-Aug-16 19:30N 28°08' W 015°25'0 0.0
2017-Aug-16 19:00N 28°08' W 015°25'0 0.0
2017-Aug-16 18:30N 28°08' W 015°25'0 0.0
2017-Aug-16 18:00N 28°08' W 015°25'0 0.0
2017-Aug-16 17:30N 28°08' W 015°25'0 0.0
2017-Aug-16 17:00N 28°08' W 015°25'0 0.0
2017-Aug-16 16:30N 28°08' W 015°25'510.0
2017-Aug-16 16:00N 28°06' W 015°20'816.4
2017-Aug-16 15:30N 28°05' W 015°10'816.2
2017-Aug-16 15:00N 28°04' W 015°01'816.3
2017-Aug-16 14:31N 28°03' W 014°52'816.2
2017-Aug-16 14:00N 28°03' W 014°43'816.3
2017-Aug-16 13:30N 28°02' W 014°34'816.5
2017-Aug-16 13:00N 28°01' W 014°24'815.8
2017-Aug-16 12:30N 28°03' W 014°16'816.5
2017-Aug-16 12:01N 28°07' W 014°08'917.1
2017-Aug-16 11:29N 28°11' W 013°58'2010.7
2017-Aug-16 09:39N 28°30' W 013°51'0 0.0
2017-Aug-16 07:00N 28°30' W 013°51'0 0.0
2017-Aug-16 06:31N 28°30' W 013°51'0 0.3
2017-Aug-16 05:57N 28°30' W 013°51'510.4
2017-Aug-16 05:29N 28°26' W 013°49'714.8
2017-Aug-16 05:00N 28°19' W 013°51'814.5
2017-Aug-16 04:26N 28°12' W 013°56'715.7
2017-Aug-16 03:58N 28°08' W 014°03'1115.7
2017-Aug-16 03:16N 28°03' W 014°15'415.4
2017-Aug-16 03:00N 28°01' W 014°19'2315.5
2017-Aug-16 01:32N 28°03' W 014°44'115.0
2017-Aug-16 01:28N 28°03' W 014°45'715.0
2017-Aug-16 01:00N 28°04' W 014°53'815.1
2017-Aug-16 00:30N 28°05' W 015°02'815.1
2017-Aug-16 00:00N 28°05' W 015°10'815.2
2017-Aug-15 23:30N 28°06' W 015°19'611.1
2017-Aug-15 23:00N 28°08' W 015°25'0 0.2
2017-Aug-15 22:30N 28°08' W 015°25'0 0.0
2017-Aug-15 22:00N 28°08' W 015°25'0 0.0
2017-Aug-15 21:30N 28°08' W 015°25'0 0.0
2017-Aug-15 21:00N 28°08' W 015°25'0 0.0
2017-Aug-15 20:30N 28°08' W 015°25'0 0.0
2017-Aug-15 20:00N 28°08' W 015°25'0 0.0
2017-Aug-15 19:30N 28°08' W 015°25'0 0.0
2017-Aug-15 19:00N 28°08' W 015°25'0 0.0
2017-Aug-15 18:30N 28°08' W 015°25'0 0.0
2017-Aug-15 18:01N 28°08' W 015°25'0 0.0
2017-Aug-15 17:30N 28°08' W 015°25'0 0.0
2017-Aug-15 17:01N 28°08' W 015°25'0 0.0
2017-Aug-15 16:30N 28°08' W 015°25'4 7.5
2017-Aug-15 16:00N 28°07' W 015°21'916.9
2017-Aug-15 15:30N 28°05' W 015°11'816.7
2017-Aug-15 15:00N 28°04' W 015°02'816.9
2017-Aug-15 14:30N 28°03' W 014°53'816.6
2017-Aug-15 14:00N 28°03' W 014°43'816.5
2017-Aug-15 13:30N 28°02' W 014°34'916.7
2017-Aug-15 12:59N 28°01' W 014°24'816.1
2017-Aug-15 12:30N 28°03' W 014°16'816.7
2017-Aug-15 12:00N 28°07' W 014°07'2216.6
2017-Aug-15 10:39N 28°23' W 013°50'317.4
2017-Aug-15 10:29N 28°26' W 013°49'3 0.8
2017-Aug-15 06:42N 28°29' W 013°50'315.7
2017-Aug-15 06:30N 28°26' W 013°49'814.9
2017-Aug-15 05:58N 28°18' W 013°51'715.4
2017-Aug-15 05:30N 28°12' W 013°55'816.0
2017-Aug-15 05:01N 28°09' W 014°03'816.1
2017-Aug-15 04:30N 28°05' W 014°11'816.0
2017-Aug-15 04:00N 28°01' W 014°19'1515.2
2017-Aug-15 03:01N 28°02' W 014°36'114.7
2017-Aug-15 02:59N 28°02' W 014°37'815.0
2017-Aug-15 02:29N 28°03' W 014°45'714.9
2017-Aug-15 02:00N 28°04' W 014°53'714.9
2017-Aug-15 01:30N 28°05' W 015°02'815.0
2017-Aug-15 01:00N 28°06' W 015°10'714.9
2017-Aug-15 00:30N 28°07' W 015°18'611.5
2017-Aug-15 00:01N 28°08' W 015°25'0 0.4
2017-Aug-14 23:30N 28°08' W 015°25'0 0.0
2017-Aug-14 23:00N 28°08' W 015°25'0 0.0
2017-Aug-14 22:30N 28°08' W 015°25'0 0.0
2017-Aug-14 22:00N 28°08' W 015°25'0 0.0
2017-Aug-14 21:30N 28°08' W 015°25'0 0.0
2017-Aug-14 21:00N 28°08' W 015°25'0 0.0
2017-Aug-14 20:30N 28°08' W 015°25'0 0.0
2017-Aug-14 20:00N 28°08' W 015°25'0 0.0
2017-Aug-14 19:30N 28°08' W 015°25'0 0.0
2017-Aug-14 19:00N 28°08' W 015°25'0 0.0
2017-Aug-14 18:30N 28°08' W 015°25'0 0.0
2017-Aug-14 18:00N 28°08' W 015°25'0 0.0
2017-Aug-14 17:30N 28°08' W 015°25'0 0.0
2017-Aug-14 17:00N 28°08' W 015°25'0 0.0
2017-Aug-14 16:30N 28°08' W 015°25'0 0.0
2017-Aug-14 16:00N 28°08' W 015°25'0 0.0
2017-Aug-14 15:30N 28°08' W 015°25'0 0.0
2017-Aug-14 15:00N 28°08' W 015°25'0 0.0
2017-Aug-14 14:30N 28°08' W 015°25'0 0.0
2017-Aug-14 14:00N 28°08' W 015°25'0 0.0
2017-Aug-14 13:30N 28°08' W 015°25'0 0.0
2017-Aug-14 13:00N 28°08' W 015°25'0 0.0
2017-Aug-14 12:30N 28°08' W 015°25'0 0.0
2017-Aug-14 12:00N 28°08' W 015°25'0 0.0
2017-Aug-14 11:30N 28°08' W 015°25'0 0.0
2017-Aug-14 11:00N 28°08' W 015°25'0 0.0
2017-Aug-14 10:30N 28°08' W 015°25'0 0.0
2017-Aug-14 10:00N 28°08' W 015°25'0 0.0
2017-Aug-14 09:30N 28°08' W 015°25'0 0.0
2017-Aug-14 09:00N 28°08' W 015°25'0 0.0
2017-Aug-14 08:30N 28°08' W 015°25'0 0.0
2017-Aug-14 08:00N 28°08' W 015°25'0 0.0
2017-Aug-14 07:30N 28°08' W 015°25'0 0.0
2017-Aug-14 07:00N 28°08' W 015°25'0 0.0
2017-Aug-14 06:30N 28°08' W 015°25'0 0.0
2017-Aug-14 06:00N 28°08' W 015°25'0 0.0
2017-Aug-14 05:30N 28°08' W 015°25'0 0.0
2017-Aug-14 05:00N 28°08' W 015°25'0 0.0
2017-Aug-14 04:30N 28°08' W 015°25'0 0.0
2017-Aug-14 04:00N 28°08' W 015°25'0 0.0
2017-Aug-14 03:30N 28°08' W 015°25'0 0.0
2017-Aug-14 03:00N 28°08' W 015°25'0 0.0
2017-Aug-14 02:30N 28°08' W 015°25'0 0.0
2017-Aug-14 02:00N 28°08' W 015°25'0 0.0
2017-Aug-14 01:30N 28°08' W 015°25'0 0.0
2017-Aug-14 01:00N 28°08' W 015°25'0 0.0
2017-Aug-14 00:30N 28°08' W 015°25'0 0.0
2017-Aug-14 00:00N 28°08' W 015°25'0 0.0
2017-Aug-13 23:30N 28°08' W 015°25'0 0.0
2017-Aug-13 23:00N 28°08' W 015°25'0 0.0
2017-Aug-13 22:30N 28°08' W 015°25'0 0.0
2017-Aug-13 22:00N 28°08' W 015°25'0 0.0
2017-Aug-13 21:30N 28°08' W 015°25'0 0.0
2017-Aug-13 21:00N 28°08' W 015°25'0 0.0
2017-Aug-13 20:30N 28°08' W 015°25'0 0.0
2017-Aug-13 20:00N 28°08' W 015°25'0 0.0
2017-Aug-13 19:30N 28°08' W 015°25'  
Track history (hours):
 
Tides and Currents Weather Stations Pressure Air Temp Water Temp Dewpoint Dewpoint Depression Visibility Wind Speed Wind Dir Waves Ship Positions

Volcan De Tauce

Last reported at 2017-Aug-23 19:30 UTC. Time now 2017-Aug-23 19:28 UTC.
Position N 28°08' W 015°25'.

Length 120 m; draft 4.4 m.

Type: Passenger vessel. MMSI: 224761000.

Date/timePositionNaut miles runAvg speedWind from/ knotsBaromVisibWave heightAir tempDewpointWater temp
2017-Aug-23 19:30N 28°08' W 015°25'0 0.0
2017-Aug-23 19:00N 28°08' W 015°25'0 0.0
2017-Aug-23 18:30N 28°08' W 015°25'0 0.0
2017-Aug-23 18:00N 28°08' W 015°25'0 0.0
2017-Aug-23 17:30N 28°08' W 015°25'0 0.0
2017-Aug-23 17:00N 28°08' W 015°25'1 2.4
2017-Aug-23 16:30N 28°07' W 015°24'815.1
2017-Aug-23 16:00N 28°06' W 015°16'815.4
2017-Aug-23 15:30N 28°06' W 015°07'815.7
2017-Aug-23 15:00N 28°05' W 014°58'815.7
2017-Aug-23 14:30N 28°04' W 014°49'1615.7
2017-Aug-23 13:30N 28°02' W 014°32'816.2
2017-Aug-23 13:00N 28°01' W 014°23'915.4
2017-Aug-23 12:26N 28°04' W 014°13'816.5
2017-Aug-23 11:59N 28°08' W 014°06'816.4
2017-Aug-23 11:30N 28°11' W 013°58'1015.8
2017-Aug-23 10:52N 28°20' W 013°51'616.9
2017-Aug-23 10:30N 28°25' W 013°49'5 8.5
2017-Aug-23 09:57N 28°30' W 013°51'0 0.0
2017-Aug-23 09:29N 28°30' W 013°51'0 0.0
2017-Aug-23 09:00N 28°30' W 013°51'0 0.0
2017-Aug-23 08:30N 28°30' W 013°51'0 0.0
2017-Aug-23 07:59N 28°30' W 013°51'0 0.0
2017-Aug-23 07:30N 28°30' W 013°51'0 0.0
2017-Aug-23 06:50N 28°30' W 013°51'0 0.0
2017-Aug-23 06:30N 28°30' W 013°51'1 1.5
2017-Aug-23 06:00N 28°29' W 013°51'713.1
2017-Aug-23 05:30N 28°23' W 013°49'814.9
2017-Aug-23 04:58N 28°16' W 013°52'714.2
2017-Aug-23 04:30N 28°11' W 013°57'916.0
2017-Aug-23 03:57N 28°07' W 014°06'816.3
2017-Aug-23 03:29N 28°03' W 014°14'1015.3
2017-Aug-23 02:48N 28°01' W 014°26'515.5
2017-Aug-23 02:29N 28°01' W 014°31'715.3
2017-Aug-23 02:00N 28°02' W 014°39'815.3
2017-Aug-23 01:30N 28°03' W 014°48'815.2
2017-Aug-23 00:58N 28°04' W 014°57'715.0
2017-Aug-23 00:30N 28°05' W 015°05'815.3
2017-Aug-23 00:00N 28°06' W 015°14'815.8
2017-Aug-22 23:30N 28°07' W 015°22'2 4.9
2017-Aug-22 23:00N 28°08' W 015°25'0 0.0
2017-Aug-22 22:30N 28°08' W 015°25'0 0.0
2017-Aug-22 22:00N 28°08' W 015°25'0 0.0
2017-Aug-22 21:30N 28°08' W 015°25'0 0.0
2017-Aug-22 21:00N 28°08' W 015°25'0 0.0
2017-Aug-22 20:30N 28°08' W 015°25'0 0.0
2017-Aug-22 20:00N 28°08' W 015°25'0 0.0
2017-Aug-22 19:30N 28°08' W 015°25'0 0.0
2017-Aug-22 19:00N 28°08' W 015°25'0 0.0
2017-Aug-22 18:30N 28°08' W 015°25'0 0.0
2017-Aug-22 18:00N 28°08' W 015°25'0 0.0
2017-Aug-22 17:30N 28°08' W 015°25'0 0.0
2017-Aug-22 17:00N 28°08' W 015°25'2 4.6
2017-Aug-22 16:30N 28°07' W 015°23'815.7
2017-Aug-22 16:00N 28°06' W 015°14'815.9
2017-Aug-22 15:30N 28°06' W 015°05'816.0
2017-Aug-22 15:00N 28°05' W 014°56'816.0
2017-Aug-22 14:30N 28°04' W 014°47'816.1
2017-Aug-22 14:00N 28°03' W 014°38'816.2
2017-Aug-22 13:30N 28°02' W 014°29'816.3
2017-Aug-22 13:00N 28°01' W 014°20'1416.1
2017-Aug-22 12:09N 28°08' W 014°06'216.3
2017-Aug-22 12:00N 28°09' W 014°03'916.4
2017-Aug-22 11:26N 28°14' W 013°54'716.6
2017-Aug-22 11:00N 28°20' W 013°51'815.9
2017-Aug-22 10:29N 28°28' W 013°51'1 3.0
2017-Aug-22 10:00N 28°30' W 013°51'0 0.0
2017-Aug-22 09:30N 28°30' W 013°51'0 0.0
2017-Aug-22 09:00N 28°30' W 013°51'0 0.0
2017-Aug-22 08:30N 28°30' W 013°51'0 0.0
2017-Aug-22 08:00N 28°30' W 013°51'0 0.0
2017-Aug-22 07:30N 28°30' W 013°51'0 0.0
2017-Aug-22 06:55N 28°30' W 013°51'1 2.4
2017-Aug-22 06:28N 28°29' W 013°50'614.1
2017-Aug-22 06:00N 28°23' W 013°49'715.0
2017-Aug-22 05:30N 28°16' W 013°53'714.0
2017-Aug-22 05:00N 28°11' W 013°58'815.6
2017-Aug-22 04:30N 28°07' W 014°06'816.0
2017-Aug-22 04:00N 28°03' W 014°13'815.0
2017-Aug-22 03:30N 28°01' W 014°22'815.7
2017-Aug-22 03:00N 28°02' W 014°31'915.6
2017-Aug-22 02:26N 28°03' W 014°41'715.0
2017-Aug-22 01:59N 28°03' W 014°48'715.1
2017-Aug-22 01:30N 28°04' W 014°56'714.7
2017-Aug-22 01:00N 28°06' W 015°05'815.1
2017-Aug-22 00:30N 28°06' W 015°13'815.3
2017-Aug-22 00:00N 28°07' W 015°22'3 6.4
2017-Aug-21 23:30N 28°08' W 015°25'0 0.0
2017-Aug-21 23:00N 28°08' W 015°25'0 0.0
2017-Aug-21 22:30N 28°08' W 015°25'0 0.0
2017-Aug-21 22:00N 28°08' W 015°25'0 0.0
2017-Aug-21 21:30N 28°08' W 015°25'0 0.0
2017-Aug-21 21:00N 28°08' W 015°25'0 0.0
2017-Aug-21 20:30N 28°08' W 015°25'0 0.0
2017-Aug-21 20:00N 28°08' W 015°25'0 0.0
2017-Aug-21 19:30N 28°08' W 015°25'0 0.0
2017-Aug-21 19:00N 28°08' W 015°25'0 0.0
2017-Aug-21 18:30N 28°08' W 015°25'0 0.0
2017-Aug-21 18:00N 28°08' W 015°25'0 0.0
2017-Aug-21 17:30N 28°08' W 015°25'0 0.0
2017-Aug-21 17:00N 28°08' W 015°25'0 0.0
2017-Aug-21 16:30N 28°08' W 015°25'0 0.0
2017-Aug-21 16:00N 28°08' W 015°25'0 0.0
2017-Aug-21 15:30N 28°08' W 015°25'0 0.0
2017-Aug-21 15:00N 28°08' W 015°25'0 0.0
2017-Aug-21 14:30N 28°08' W 015°25'0 0.0
2017-Aug-21 14:00N 28°08' W 015°25'0 0.0
2017-Aug-21 13:30N 28°08' W 015°25'0 0.0
2017-Aug-21 13:00N 28°08' W 015°25'0 0.0
2017-Aug-21 12:30N 28°08' W 015°25'0 0.0
2017-Aug-21 12:00N 28°08' W 015°25'0 0.0
2017-Aug-21 11:30N 28°08' W 015°25'0 0.0
2017-Aug-21 11:00N 28°08' W 015°25'0 0.0
2017-Aug-21 10:30N 28°08' W 015°25'0 0.0
2017-Aug-21 10:00N 28°08' W 015°25'0 0.0
2017-Aug-21 09:30N 28°08' W 015°25'0 0.0
2017-Aug-21 09:00N 28°08' W 015°25'0 0.0
2017-Aug-21 08:30N 28°08' W 015°25'0 0.0
2017-Aug-21 08:00N 28°08' W 015°25'0 0.0
2017-Aug-21 07:30N 28°08' W 015°25'0 0.0
2017-Aug-21 07:00N 28°08' W 015°25'0 0.0
2017-Aug-21 06:30N 28°08' W 015°25'0 0.0
2017-Aug-21 06:00N 28°08' W 015°25'0 0.0
2017-Aug-21 05:30N 28°08' W 015°25'0 0.0
2017-Aug-21 05:00N 28°08' W 015°25'0 0.0
2017-Aug-21 04:30N 28°08' W 015°25'0 0.0
2017-Aug-21 04:00N 28°08' W 015°25'0 0.0
2017-Aug-21 03:30N 28°08' W 015°25'0 0.0
2017-Aug-21 03:00N 28°08' W 015°25'0 0.0
2017-Aug-21 02:30N 28°08' W 015°25'0 0.0
2017-Aug-21 02:00N 28°08' W 015°25'0 0.0
2017-Aug-21 01:30N 28°08' W 015°25'0 0.0
2017-Aug-21 01:00N 28°08' W 015°25'0 0.0
2017-Aug-21 00:30N 28°08' W 015°25'0 0.0
2017-Aug-21 00:00N 28°08' W 015°25'0 0.0
2017-Aug-20 23:30N 28°08' W 015°25'0 0.0
2017-Aug-20 23:00N 28°08' W 015°25'0 0.0
2017-Aug-20 22:30N 28°08' W 015°25'0 0.0
2017-Aug-20 22:00N 28°08' W 015°25'0 0.0
2017-Aug-20 21:30N 28°08' W 015°25'0 0.0
2017-Aug-20 21:00N 28°08' W 015°25'0 0.0
2017-Aug-20 20:30N 28°08' W 015°25'0 0.0
2017-Aug-20 20:00N 28°08' W 015°25'0 0.0
2017-Aug-20 19:30N 28°08' W 015°25'0 0.0
2017-Aug-20 19:00N 28°08' W 015°25'0 0.0
2017-Aug-20 18:30N 28°08' W 015°25'0 0.0
2017-Aug-20 18:00N 28°08' W 015°25'0 0.0
2017-Aug-20 17:30N 28°08' W 015°25'0 0.0
2017-Aug-20 17:00N 28°08' W 015°25'0 0.0
2017-Aug-20 16:30N 28°08' W 015°25'0 0.0
2017-Aug-20 16:00N 28°08' W 015°25'0 0.0
2017-Aug-20 15:30N 28°08' W 015°25'0 0.0
2017-Aug-20 15:00N 28°08' W 015°25'0 0.0
2017-Aug-20 14:30N 28°08' W 015°25'0 0.0
2017-Aug-20 14:00N 28°08' W 015°25'0 0.0
2017-Aug-20 13:30N 28°08' W 015°25'0 0.0
2017-Aug-20 13:00N 28°08' W 015°25'0 0.0
2017-Aug-20 12:30N 28°08' W 015°25'0 0.0
2017-Aug-20 12:00N 28°08' W 015°25'0 0.0
2017-Aug-20 11:30N 28°08' W 015°25'0 0.0
2017-Aug-20 11:00N 28°08' W 015°25'0 0.0
2017-Aug-20 10:30N 28°08' W 015°25'0 0.0
2017-Aug-20 10:00N 28°08' W 015°25'0 0.0
2017-Aug-20 09:30N 28°08' W 015°25'0 0.0
2017-Aug-20 09:00N 28°08' W 015°25'0 0.0
2017-Aug-20 08:30N 28°08' W 015°25'0 0.0
2017-Aug-20 08:00N 28°08' W 015°25'0 0.0
2017-Aug-20 07:30N 28°08' W 015°25'0 0.0
2017-Aug-20 07:00N 28°08' W 015°25'0 0.0
2017-Aug-20 06:30N 28°08' W 015°25'0 0.0
2017-Aug-20 06:00N 28°08' W 015°25'0 0.0
2017-Aug-20 05:30N 28°08' W 015°25'0 0.0
2017-Aug-20 05:00N 28°08' W 015°25'0 0.0
2017-Aug-20 04:30N 28°08' W 015°25'0 0.0
2017-Aug-20 04:00N 28°08' W 015°25'0 0.0
2017-Aug-20 03:30N 28°08' W 015°25'0 0.0
2017-Aug-20 03:00N 28°08' W 015°25'0 0.0
2017-Aug-20 02:30N 28°08' W 015°25'0 0.0
2017-Aug-20 02:00N 28°08' W 015°25'0 0.0
2017-Aug-20 01:30N 28°08' W 015°25'0 0.0
2017-Aug-20 01:00N 28°08' W 015°25'0 0.0
2017-Aug-20 00:30N 28°08' W 015°25'0 0.0
2017-Aug-20 00:00N 28°08' W 015°25'0 0.0
2017-Aug-19 23:30N 28°08' W 015°25'0 0.0
2017-Aug-19 23:00N 28°08' W 015°25'0 0.0
2017-Aug-19 22:30N 28°08' W 015°25'0 0.0
2017-Aug-19 22:00N 28°08' W 015°25'0 0.0
2017-Aug-19 21:30N 28°08' W 015°25'0 0.0
2017-Aug-19 21:00N 28°08' W 015°25'0 0.0
2017-Aug-19 20:30N 28°08' W 015°25'0 0.0
2017-Aug-19 20:00N 28°08' W 015°25'0 0.0
2017-Aug-19 19:30N 28°08' W 015°25'0 0.0
2017-Aug-19 19:00N 28°08' W 015°25'0 0.0
2017-Aug-19 18:30N 28°08' W 015°25'0 0.0
2017-Aug-19 18:00N 28°08' W 015°25'0 0.0
2017-Aug-19 17:30N 28°08' W 015°25'0 0.0
2017-Aug-19 17:00N 28°08' W 015°25'1 2.5
2017-Aug-19 16:31N 28°07' W 015°24'815.5
2017-Aug-19 16:01N 28°06' W 015°16'815.8
2017-Aug-19 15:31N 28°05' W 015°07'815.4
2017-Aug-19 15:01N 28°04' W 014°58'1615.9
2017-Aug-19 14:00N 28°02' W 014°40'1016.4
2017-Aug-19 13:25N 28°01' W 014°30'816.8
2017-Aug-19 12:56N 28°01' W 014°20'816.0
2017-Aug-19 12:26N 28°05' W 014°12'716.1
2017-Aug-19 12:00N 28°08' W 014°05'25 7.8
2017-Aug-19 08:46N 28°30' W 013°51'1 0.5
2017-Aug-19 06:34N 28°29' W 013°50'314.9
2017-Aug-19 06:22N 28°27' W 013°49'513.2
2017-Aug-19 05:59N 28°22' W 013°49'913.6
2017-Aug-19 05:18N 28°13' W 013°54'514.3
2017-Aug-19 04:57N 28°11' W 013°59'715.2
2017-Aug-19 04:30N 28°07' W 014°05'815.5
2017-Aug-19 03:59N 28°03' W 014°13'2914.5
2017-Aug-19 01:59N 28°03' W 014°46'714.8
2017-Aug-19 01:30N 28°04' W 014°54'714.8
2017-Aug-19 01:00N 28°04' W 015°02'714.9
2017-Aug-19 00:30N 28°05' W 015°11'815.1
2017-Aug-19 00:00N 28°07' W 015°19'510.3
2017-Aug-18 23:31N 28°08' W 015°25'0 0.1
2017-Aug-18 23:00N 28°08' W 015°25'0 0.0
2017-Aug-18 22:30N 28°08' W 015°25'0 0.0
2017-Aug-18 22:00N 28°08' W 015°25'0 0.0
2017-Aug-18 21:30N 28°08' W 015°25'0 0.0
2017-Aug-18 21:00N 28°08' W 015°25'0 0.0
2017-Aug-18 20:30N 28°08' W 015°25'0 0.0
2017-Aug-18 20:00N 28°08' W 015°25'0 0.0
2017-Aug-18 19:30N 28°08' W 015°25'0 0.0
2017-Aug-18 19:00N 28°08' W 015°25'0 0.0
2017-Aug-18 18:30N 28°08' W 015°25'0 0.0
2017-Aug-18 18:00N 28°08' W 015°25'0 0.0
2017-Aug-18 17:30N 28°08' W 015°25'0 0.0
2017-Aug-18 17:00N 28°08' W 015°25'2 3.6
2017-Aug-18 16:30N 28°07' W 015°23'816.1
2017-Aug-18 16:01N 28°06' W 015°14'815.9
2017-Aug-18 15:31N 28°05' W 015°05'815.1
2017-Aug-18 15:01N 28°04' W 014°57'815.4
2017-Aug-18 14:31N 28°03' W 014°48'1615.9
2017-Aug-18 13:30N 28°01' W 014°30'816.3
2017-Aug-18 13:00N 28°01' W 014°21'815.9
2017-Aug-18 12:29N 28°05' W 014°13'815.9
2017-Aug-18 12:01N 28°08' W 014°05'816.3
2017-Aug-18 11:30N 28°12' W 013°57'1516.1
2017-Aug-18 10:34N 28°25' W 013°49'116.5
2017-Aug-18 10:30N 28°27' W 013°49'3 0.6
2017-Aug-18 05:57N 28°29' W 013°50'914.2
2017-Aug-18 05:19N 28°20' W 013°50'614.9
2017-Aug-18 04:54N 28°15' W 013°53'614.4
2017-Aug-18 04:30N 28°11' W 013°58'815.6
2017-Aug-18 03:58N 28°07' W 014°06'815.7
2017-Aug-18 03:26N 28°03' W 014°14'2214.7
2017-Aug-18 01:56N 28°03' W 014°39'614.7
2017-Aug-18 01:30N 28°03' W 014°46'714.7
2017-Aug-18 01:00N 28°04' W 014°55'714.8
2017-Aug-18 00:30N 28°04' W 015°03'715.0
2017-Aug-18 00:00N 28°06' W 015°12'815.2
2017-Aug-17 23:30N 28°07' W 015°20'4 8.9
2017-Aug-17 23:00N 28°08' W 015°25'0 0.0
2017-Aug-17 22:30N 28°08' W 015°25'0 0.0
2017-Aug-17 22:00N 28°08' W 015°25'0 0.0
2017-Aug-17 21:30N 28°08' W 015°25'0 0.0
2017-Aug-17 21:00N 28°08' W 015°25'0 0.0
2017-Aug-17 20:30N 28°08' W 015°25'0 0.0
2017-Aug-17 20:00N 28°08' W 015°25'0 0.0
2017-Aug-17 19:30N 28°08' W 015°25'0 0.0
2017-Aug-17 19:00N 28°08' W 015°25'0 0.0
2017-Aug-17 18:30N 28°08' W 015°25'0 0.0
2017-Aug-17 18:00N 28°08' W 015°25'0 0.0
2017-Aug-17 17:30N 28°08' W 015°25'0 0.0
2017-Aug-17 17:00N 28°08' W 015°25'1 2.1
2017-Aug-17 16:30N 28°07' W 015°24'714.9
2017-Aug-17 16:00N 28°05' W 015°16'816.7
2017-Aug-17 15:30N 28°04' W 015°07'816.3
2017-Aug-17 15:00N 28°04' W 014°58'816.3
2017-Aug-17 14:30N 28°03' W 014°48'816.4
2017-Aug-17 14:00N 28°02' W 014°39'816.3
2017-Aug-17 13:30N 28°02' W 014°30'916.9
2017-Aug-17 13:00N 28°01' W 014°20'1516.8
2017-Aug-17 12:08N 28°08' W 014°06'217.2
2017-Aug-17 12:00N 28°09' W 014°03'917.4
2017-Aug-17 11:30N 28°13' W 013°55'1417.1
2017-Aug-17 10:40N 28°27' W 013°49'316.8
2017-Aug-17 10:30N 28°29' W 013°51'1 1.9
2017-Aug-17 10:00N 28°30' W 013°51'0 0.0
2017-Aug-17 09:30N 28°30' W 013°51'0 0.0
2017-Aug-17 08:59N 28°30' W 013°51'0 0.0
2017-Aug-17 08:05N 28°30' W 013°51'0 0.0
2017-Aug-17 07:55N 28°30' W 013°51'16 7.3
2017-Aug-17 05:41N 28°14' W 013°53'314.6
2017-Aug-17 05:30N 28°12' W 013°55'815.8
2017-Aug-17 05:00N 28°08' W 014°03'1016.0
2017-Aug-17 04:22N 28°04' W 014°13'615.6
2017-Aug-17 04:01N 28°01' W 014°19'2015.1
2017-Aug-17 02:41N 28°03' W 014°42'814.7
2017-Aug-17 02:08N 28°03' W 014°51'614.8
2017-Aug-17 01:44N 28°04' W 014°58'314.8
2017-Aug-17 01:30N 28°04' W 015°01'714.7
2017-Aug-17 01:00N 28°06' W 015°10'714.9
2017-Aug-17 00:30N 28°07' W 015°18'612.0
2017-Aug-17 00:00N 28°08' W 015°25'0 0.7
2017-Aug-16 23:30N 28°08' W 015°25'0 0.0
2017-Aug-16 23:00N 28°08' W 015°25'0 0.0
2017-Aug-16 22:30N 28°08' W 015°25'0 0.0
2017-Aug-16 22:00N 28°08' W 015°25'0 0.0
2017-Aug-16 21:30N 28°08' W 015°25'0 0.0
2017-Aug-16 21:00N 28°08' W 015°25'0 0.0
2017-Aug-16 20:30N 28°08' W 015°25'0 0.0
2017-Aug-16 20:00N 28°08' W 015°25'0 0.0
2017-Aug-16 19:30N 28°08' W 015°25'0 0.0
2017-Aug-16 19:00N 28°08' W 015°25'0 0.0
2017-Aug-16 18:30N 28°08' W 015°25'0 0.0
2017-Aug-16 18:00N 28°08' W 015°25'0 0.0
2017-Aug-16 17:30N 28°08' W 015°25'0 0.0
2017-Aug-16 17:00N 28°08' W 015°25'0 0.0
2017-Aug-16 16:30N 28°08' W 015°25'510.0
2017-Aug-16 16:00N 28°06' W 015°20'816.4
2017-Aug-16 15:30N 28°05' W 015°10'816.2
2017-Aug-16 15:00N 28°04' W 015°01'816.3
2017-Aug-16 14:31N 28°03' W 014°52'816.2
2017-Aug-16 14:00N 28°03' W 014°43'816.3
2017-Aug-16 13:30N 28°02' W 014°34'816.5
2017-Aug-16 13:00N 28°01' W 014°24'815.8
2017-Aug-16 12:30N 28°03' W 014°16'816.5
2017-Aug-16 12:01N 28°07' W 014°08'917.1
2017-Aug-16 11:29N 28°11' W 013°58'2010.7
2017-Aug-16 09:39N 28°30' W 013°51'0 0.0
2017-Aug-16 07:00N 28°30' W 013°51'0 0.0
2017-Aug-16 06:31N 28°30' W 013°51'0 0.3
2017-Aug-16 05:57N 28°30' W 013°51'510.4
2017-Aug-16 05:29N 28°26' W 013°49'714.8
2017-Aug-16 05:00N 28°19' W 013°51'814.5
2017-Aug-16 04:26N 28°12' W 013°56'715.7
2017-Aug-16 03:58N 28°08' W 014°03'1115.7
2017-Aug-16 03:16N 28°03' W 014°15'415.4
2017-Aug-16 03:00N 28°01' W 014°19'2315.5
2017-Aug-16 01:32N 28°03' W 014°44'115.0
2017-Aug-16 01:28N 28°03' W 014°45'715.0
2017-Aug-16 01:00N 28°04' W 014°53'815.1
2017-Aug-16 00:30N 28°05' W 015°02'815.1
2017-Aug-16 00:00N 28°05' W 015°10'815.2
2017-Aug-15 23:30N 28°06' W 015°19'611.1
2017-Aug-15 23:00N 28°08' W 015°25'0 0.2
2017-Aug-15 22:30N 28°08' W 015°25'0 0.0
2017-Aug-15 22:00N 28°08' W 015°25'0 0.0
2017-Aug-15 21:30N 28°08' W 015°25'0 0.0
2017-Aug-15 21:00N 28°08' W 015°25'0 0.0
2017-Aug-15 20:30N 28°08' W 015°25'0 0.0
2017-Aug-15 20:00N 28°08' W 015°25'0 0.0
2017-Aug-15 19:30N 28°08' W 015°25'0 0.0
2017-Aug-15 19:00N 28°08' W 015°25'0 0.0
2017-Aug-15 18:30N 28°08' W 015°25'0 0.0
2017-Aug-15 18:01N 28°08' W 015°25'0 0.0
2017-Aug-15 17:30N 28°08' W 015°25'0 0.0
2017-Aug-15 17:01N 28°08' W 015°25'0 0.0
2017-Aug-15 16:30N 28°08' W 015°25'4 7.5
2017-Aug-15 16:00N 28°07' W 015°21'916.9
2017-Aug-15 15:30N 28°05' W 015°11'816.7
2017-Aug-15 15:00N 28°04' W 015°02'816.9
2017-Aug-15 14:30N 28°03' W 014°53'816.6
2017-Aug-15 14:00N 28°03' W 014°43'816.5
2017-Aug-15 13:30N 28°02' W 014°34'916.7
2017-Aug-15 12:59N 28°01' W 014°24'816.1
2017-Aug-15 12:30N 28°03' W 014°16'816.7
2017-Aug-15 12:00N 28°07' W 014°07'2216.6
2017-Aug-15 10:39N 28°23' W 013°50'317.4
2017-Aug-15 10:29N 28°26' W 013°49'3 0.8
2017-Aug-15 06:42N 28°29' W 013°50'315.7
2017-Aug-15 06:30N 28°26' W 013°49'814.9
2017-Aug-15 05:58N 28°18' W 013°51'715.4
2017-Aug-15 05:30N 28°12' W 013°55'816.0
2017-Aug-15 05:01N 28°09' W 014°03'816.1
2017-Aug-15 04:30N 28°05' W 014°11'816.0
2017-Aug-15 04:00N 28°01' W 014°19'1515.2
2017-Aug-15 03:01N 28°02' W 014°36'114.7
2017-Aug-15 02:59N 28°02' W 014°37'815.0
2017-Aug-15 02:29N 28°03' W 014°45'714.9
2017-Aug-15 02:00N 28°04' W 014°53'714.9
2017-Aug-15 01:30N 28°05' W 015°02'815.0
2017-Aug-15 01:00N 28°06' W 015°10'714.9
2017-Aug-15 00:30N 28°07' W 015°18'611.5
2017-Aug-15 00:01N 28°08' W 015°25'0 0.4
2017-Aug-14 23:30N 28°08' W 015°25'0 0.0
2017-Aug-14 23:00N 28°08' W 015°25'0 0.0
2017-Aug-14 22:30N 28°08' W 015°25'0 0.0
2017-Aug-14 22:00N 28°08' W 015°25'0 0.0
2017-Aug-14 21:30N 28°08' W 015°25'0 0.0
2017-Aug-14 21:00N 28°08' W 015°25'0 0.0
2017-Aug-14 20:30N 28°08' W 015°25'0 0.0
2017-Aug-14 20:00N 28°08' W 015°25'0 0.0
2017-Aug-14 19:30N 28°08' W 015°25'0 0.0
2017-Aug-14 19:00N 28°08' W 015°25'0 0.0
2017-Aug-14 18:30N 28°08' W 015°25'0 0.0
2017-Aug-14 18:00N 28°08' W 015°25'0 0.0
2017-Aug-14 17:30N 28°08' W 015°25'0 0.0
2017-Aug-14 17:00N 28°08' W 015°25'0 0.0
2017-Aug-14 16:30N 28°08' W 015°25'0 0.0
2017-Aug-14 16:00N 28°08' W 015°25'0 0.0
2017-Aug-14 15:30N 28°08' W 015°25'0 0.0
2017-Aug-14 15:00N 28°08' W 015°25'0 0.0
2017-Aug-14 14:30N 28°08' W 015°25'0 0.0
2017-Aug-14 14:00N 28°08' W 015°25'0 0.0
2017-Aug-14 13:30N 28°08' W 015°25'0 0.0
2017-Aug-14 13:00N 28°08' W 015°25'0 0.0
2017-Aug-14 12:30N 28°08' W 015°25'0 0.0
2017-Aug-14 12:00N 28°08' W 015°25'0 0.0
2017-Aug-14 11:30N 28°08' W 015°25'0 0.0
2017-Aug-14 11:00N 28°08' W 015°25'0 0.0
2017-Aug-14 10:30N 28°08' W 015°25'0 0.0
2017-Aug-14 10:00N 28°08' W 015°25'0 0.0
2017-Aug-14 09:30N 28°08' W 015°25'0 0.0
2017-Aug-14 09:00N 28°08' W 015°25'0 0.0
2017-Aug-14 08:30N 28°08' W 015°25'0 0.0
2017-Aug-14 08:00N 28°08' W 015°25'0 0.0
2017-Aug-14 07:30N 28°08' W 015°25'0 0.0
2017-Aug-14 07:00N 28°08' W 015°25'0 0.0
2017-Aug-14 06:30N 28°08' W 015°25'0 0.0
2017-Aug-14 06:00N 28°08' W 015°25'0 0.0
2017-Aug-14 05:30N 28°08' W 015°25'0 0.0
2017-Aug-14 05:00N 28°08' W 015°25'0 0.0
2017-Aug-14 04:30N 28°08' W 015°25'0 0.0
2017-Aug-14 04:00N 28°08' W 015°25'0 0.0
2017-Aug-14 03:30N 28°08' W 015°25'0 0.0
2017-Aug-14 03:00N 28°08' W 015°25'0 0.0
2017-Aug-14 02:30N 28°08' W 015°25'0 0.0
2017-Aug-14 02:00N 28°08' W 015°25'0 0.0
2017-Aug-14 01:30N 28°08' W 015°25'0 0.0
2017-Aug-14 01:00N 28°08' W 015°25'0 0.0
2017-Aug-14 00:30N 28°08' W 015°25'0 0.0
2017-Aug-14 00:00N 28°08' W 015°25'0 0.0
2017-Aug-13 23:30N 28°08' W 015°25'0 0.0
2017-Aug-13 23:00N 28°08' W 015°25'0 0.0
2017-Aug-13 22:30N 28°08' W 015°25'0 0.0
2017-Aug-13 22:00N 28°08' W 015°25'0 0.0
2017-Aug-13 21:30N 28°08' W 015°25'0 0.0
2017-Aug-13 21:00N 28°08' W 015°25'0 0.0
2017-Aug-13 20:30N 28°08' W 015°25'0 0.0
2017-Aug-13 20:00N 28°08' W 015°25'0 0.0
2017-Aug-13 19:30N 28°08' W 015°25'  

Dump ship's entire track history